sensor_id;sensor_type;location;lat;lon;timestamp;P1;durP1;ratioP1;P2;durP2;ratioP2
79640;SDS011;69115;49.904;14.390;2023-04-15T00:00:04;4.30;;;3.30;;
79640;SDS011;69115;49.904;14.390;2023-04-15T00:02:30;6.78;;;3.70;;
79640;SDS011;69115;49.904;14.390;2023-04-15T00:04:56;5.70;;;3.43;;
79640;SDS011;69115;49.904;14.390;2023-04-15T00:07:21;5.40;;;3.30;;
79640;SDS011;69115;49.904;14.390;2023-04-15T00:09:46;5.28;;;3.53;;
79640;SDS011;69115;49.904;14.390;2023-04-15T00:12:12;4.57;;;3.25;;
79640;SDS011;69115;49.904;14.390;2023-04-15T00:14:37;5.97;;;3.05;;
79640;SDS011;69115;49.904;14.390;2023-04-15T00:17:03;4.03;;;2.70;;
79640;SDS011;69115;49.904;14.390;2023-04-15T00:19:29;4.43;;;3.35;;
79640;SDS011;69115;49.904;14.390;2023-04-15T00:21:55;4.82;;;3.30;;
79640;SDS011;69115;49.904;14.390;2023-04-15T00:24:21;4.93;;;3.80;;
79640;SDS011;69115;49.904;14.390;2023-04-15T00:26:47;4.70;;;3.05;;
79640;SDS011;69115;49.904;14.390;2023-04-15T00:29:13;4.10;;;3.08;;
79640;SDS011;69115;49.904;14.390;2023-04-15T00:31:39;4.60;;;3.33;;
79640;SDS011;69115;49.904;14.390;2023-04-15T00:34:04;3.83;;;2.67;;
79640;SDS011;69115;49.904;14.390;2023-04-15T00:36:30;4.37;;;3.10;;
79640;SDS011;69115;49.904;14.390;2023-04-15T00:38:56;4.05;;;2.80;;
79640;SDS011;69115;49.904;14.390;2023-04-15T00:41:21;4.20;;;2.90;;
79640;SDS011;69115;49.904;14.390;2023-04-15T00:43:47;5.53;;;2.90;;
79640;SDS011;69115;49.904;14.390;2023-04-15T00:46:12;3.95;;;2.90;;
79640;SDS011;69115;49.904;14.390;2023-04-15T00:48:40;3.95;;;3.10;;
79640;SDS011;69115;49.904;14.390;2023-04-15T00:51:06;3.42;;;2.65;;
79640;SDS011;69115;49.904;14.390;2023-04-15T00:53:31;4.32;;;3.10;;
79640;SDS011;69115;49.904;14.390;2023-04-15T00:55:57;3.70;;;3.08;;
79640;SDS011;69115;49.904;14.390;2023-04-15T00:58:22;4.05;;;2.90;;
79640;SDS011;69115;49.904;14.390;2023-04-15T01:00:48;5.50;;;3.47;;
79640;SDS011;69115;49.904;14.390;2023-04-15T01:03:13;4.43;;;3.08;;
79640;SDS011;69115;49.904;14.390;2023-04-15T01:05:39;4.10;;;3.20;;
79640;SDS011;69115;49.904;14.390;2023-04-15T01:08:05;4.03;;;3.13;;
79640;SDS011;69115;49.904;14.390;2023-04-15T01:10:30;4.40;;;3.22;;
79640;SDS011;69115;49.904;14.390;2023-04-15T01:12:56;5.43;;;3.65;;
79640;SDS011;69115;49.904;14.390;2023-04-15T01:15:22;4.63;;;3.28;;
79640;SDS011;69115;49.904;14.390;2023-04-15T01:17:47;4.47;;;3.78;;
79640;SDS011;69115;49.904;14.390;2023-04-15T01:20:13;4.13;;;3.47;;
79640;SDS011;69115;49.904;14.390;2023-04-15T01:22:39;4.15;;;3.28;;
79640;SDS011;69115;49.904;14.390;2023-04-15T01:25:07;3.80;;;3.10;;
79640;SDS011;69115;49.904;14.390;2023-04-15T01:27:34;7.05;;;3.15;;
79640;SDS011;69115;49.904;14.390;2023-04-15T01:30:00;3.75;;;3.33;;
79640;SDS011;69115;49.904;14.390;2023-04-15T01:32:26;4.38;;;3.42;;
79640;SDS011;69115;49.904;14.390;2023-04-15T01:34:52;4.00;;;3.28;;
79640;SDS011;69115;49.904;14.390;2023-04-15T01:37:17;3.88;;;2.90;;
79640;SDS011;69115;49.904;14.390;2023-04-15T01:39:42;5.50;;;3.40;;
79640;SDS011;69115;49.904;14.390;2023-04-15T01:42:08;4.50;;;3.20;;
79640;SDS011;69115;49.904;14.390;2023-04-15T01:44:34;5.00;;;3.25;;
79640;SDS011;69115;49.904;14.390;2023-04-15T01:46:59;4.43;;;3.05;;
79640;SDS011;69115;49.904;14.390;2023-04-15T01:49:24;3.70;;;3.28;;
79640;SDS011;69115;49.904;14.390;2023-04-15T01:51:50;4.05;;;3.13;;
79640;SDS011;69115;49.904;14.390;2023-04-15T01:54:15;3.85;;;2.92;;
79640;SDS011;69115;49.904;14.390;2023-04-15T01:56:41;3.22;;;2.88;;
79640;SDS011;69115;49.904;14.390;2023-04-15T01:59:06;3.80;;;2.95;;
79640;SDS011;69115;49.904;14.390;2023-04-15T02:01:32;3.40;;;2.75;;
79640;SDS011;69115;49.904;14.390;2023-04-15T02:03:58;4.43;;;3.25;;
79640;SDS011;69115;49.904;14.390;2023-04-15T02:06:23;7.07;;;3.00;;
79640;SDS011;69115;49.904;14.390;2023-04-15T02:08:49;3.30;;;2.70;;
79640;SDS011;69115;49.904;14.390;2023-04-15T02:11:14;4.28;;;3.15;;
79640;SDS011;69115;49.904;14.390;2023-04-15T02:13:40;3.80;;;2.33;;
79640;SDS011;69115;49.904;14.390;2023-04-15T02:16:14;4.25;;;3.00;;
79640;SDS011;69115;49.904;14.390;2023-04-15T02:18:41;4.03;;;2.92;;
79640;SDS011;69115;49.904;14.390;2023-04-15T02:21:07;2.97;;;2.28;;
79640;SDS011;69115;49.904;14.390;2023-04-15T02:23:32;3.70;;;3.08;;
79640;SDS011;69115;49.904;14.390;2023-04-15T02:25:58;3.55;;;2.42;;
79640;SDS011;69115;49.904;14.390;2023-04-15T02:28:24;3.78;;;2.30;;
79640;SDS011;69115;49.904;14.390;2023-04-15T02:30:49;3.80;;;2.50;;
79640;SDS011;69115;49.904;14.390;2023-04-15T02:33:16;3.10;;;2.40;;
79640;SDS011;69115;49.904;14.390;2023-04-15T02:35:42;4.13;;;2.75;;
79640;SDS011;69115;49.904;14.390;2023-04-15T02:38:09;3.42;;;2.75;;
79640;SDS011;69115;49.904;14.390;2023-04-15T02:40:35;4.13;;;2.90;;
79640;SDS011;69115;49.904;14.390;2023-04-15T02:43:01;3.30;;;2.53;;
79640;SDS011;69115;49.904;14.390;2023-04-15T02:45:27;5.40;;;2.83;;
79640;SDS011;69115;49.904;14.390;2023-04-15T02:47:52;3.50;;;2.50;;
79640;SDS011;69115;49.904;14.390;2023-04-15T02:50:18;3.08;;;2.17;;
79640;SDS011;69115;49.904;14.390;2023-04-15T02:52:45;2.63;;;2.00;;
79640;SDS011;69115;49.904;14.390;2023-04-15T02:55:10;2.85;;;2.22;;
79640;SDS011;69115;49.904;14.390;2023-04-15T02:57:36;3.97;;;2.30;;
79640;SDS011;69115;49.904;14.390;2023-04-15T03:00:03;3.00;;;2.60;;
79640;SDS011;69115;49.904;14.390;2023-04-15T03:02:33;4.28;;;2.42;;
79640;SDS011;69115;49.904;14.390;2023-04-15T03:05:01;3.20;;;2.25;;
79640;SDS011;69115;49.904;14.390;2023-04-15T03:07:27;3.90;;;2.65;;
79640;SDS011;69115;49.904;14.390;2023-04-15T03:09:52;3.15;;;1.95;;
79640;SDS011;69115;49.904;14.390;2023-04-15T03:12:18;5.03;;;2.27;;
79640;SDS011;69115;49.904;14.390;2023-04-15T03:14:43;2.87;;;2.10;;
79640;SDS011;69115;49.904;14.390;2023-04-15T03:17:08;2.67;;;2.00;;
79640;SDS011;69115;49.904;14.390;2023-04-15T03:19:34;2.50;;;1.98;;
79640;SDS011;69115;49.904;14.390;2023-04-15T03:21:59;3.30;;;2.55;;
79640;SDS011;69115;49.904;14.390;2023-04-15T03:24:24;2.47;;;1.95;;
79640;SDS011;69115;49.904;14.390;2023-04-15T03:26:50;3.13;;;2.45;;
79640;SDS011;69115;49.904;14.390;2023-04-15T03:29:15;2.80;;;2.15;;
79640;SDS011;69115;49.904;14.390;2023-04-15T03:31:40;2.97;;;2.30;;
79640;SDS011;69115;49.904;14.390;2023-04-15T03:34:06;3.15;;;2.35;;
79640;SDS011;69115;49.904;14.390;2023-04-15T03:36:31;2.30;;;1.80;;
79640;SDS011;69115;49.904;14.390;2023-04-15T03:38:57;3.00;;;2.38;;
79640;SDS011;69115;49.904;14.390;2023-04-15T03:41:23;2.35;;;1.77;;
79640;SDS011;69115;49.904;14.390;2023-04-15T03:43:48;2.60;;;1.90;;
79640;SDS011;69115;49.904;14.390;2023-04-15T03:46:16;3.30;;;2.55;;
79640;SDS011;69115;49.904;14.390;2023-04-15T03:48:42;3.13;;;2.47;;
79640;SDS011;69115;49.904;14.390;2023-04-15T03:51:07;3.97;;;2.20;;
79640;SDS011;69115;49.904;14.390;2023-04-15T03:53:32;4.50;;;2.80;;
79640;SDS011;69115;49.904;14.390;2023-04-15T03:55:58;3.00;;;2.50;;
79640;SDS011;69115;49.904;14.390;2023-04-15T03:58:23;4.60;;;3.28;;
79640;SDS011;69115;49.904;14.390;2023-04-15T04:00:48;4.03;;;3.10;;
79640;SDS011;69115;49.904;14.390;2023-04-15T04:03:14;10.93;;;7.18;;
79640;SDS011;69115;49.904;14.390;2023-04-15T04:05:39;16.08;;;10.57;;
79640;SDS011;69115;49.904;14.390;2023-04-15T04:08:05;18.05;;;11.20;;
79640;SDS011;69115;49.904;14.390;2023-04-15T04:10:34;18.25;;;11.35;;
79640;SDS011;69115;49.904;14.390;2023-04-15T04:12:59;16.85;;;12.00;;
79640;SDS011;69115;49.904;14.390;2023-04-15T04:15:25;16.23;;;10.90;;
79640;SDS011;69115;49.904;14.390;2023-04-15T04:17:51;17.15;;;11.60;;
79640;SDS011;69115;49.904;14.390;2023-04-15T04:20:16;13.88;;;9.60;;
79640;SDS011;69115;49.904;14.390;2023-04-15T04:22:41;13.13;;;9.30;;
79640;SDS011;69115;49.904;14.390;2023-04-15T04:25:07;16.20;;;10.70;;
79640;SDS011;69115;49.904;14.390;2023-04-15T04:27:34;20.90;;;11.85;;
79640;SDS011;69115;49.904;14.390;2023-04-15T04:29:59;15.55;;;11.10;;
79640;SDS011;69115;49.904;14.390;2023-04-15T04:32:25;14.05;;;8.63;;
79640;SDS011;69115;49.904;14.390;2023-04-15T04:34:51;13.65;;;8.63;;
79640;SDS011;69115;49.904;14.390;2023-04-15T04:37:16;14.07;;;9.90;;
79640;SDS011;69115;49.904;14.390;2023-04-15T04:39:41;13.05;;;8.38;;
79640;SDS011;69115;49.904;14.390;2023-04-15T04:42:07;11.35;;;8.18;;
79640;SDS011;69115;49.904;14.390;2023-04-15T04:44:32;10.85;;;7.47;;
79640;SDS011;69115;49.904;14.390;2023-04-15T04:46:58;10.63;;;7.82;;
79640;SDS011;69115;49.904;14.390;2023-04-15T04:49:23;12.02;;;8.48;;
79640;SDS011;69115;49.904;14.390;2023-04-15T04:51:48;11.55;;;7.82;;
79640;SDS011;69115;49.904;14.390;2023-04-15T04:54:14;12.00;;;7.97;;
79640;SDS011;69115;49.904;14.390;2023-04-15T04:56:40;11.88;;;7.50;;
79640;SDS011;69115;49.904;14.390;2023-04-15T04:59:05;9.43;;;7.05;;
79640;SDS011;69115;49.904;14.390;2023-04-15T05:01:31;11.48;;;7.40;;
79640;SDS011;69115;49.904;14.390;2023-04-15T05:03:57;12.18;;;7.90;;
79640;SDS011;69115;49.904;14.390;2023-04-15T05:06:22;11.85;;;8.02;;
79640;SDS011;69115;49.904;14.390;2023-04-15T05:08:47;14.57;;;8.55;;
79640;SDS011;69115;49.904;14.390;2023-04-15T05:11:13;13.65;;;8.52;;
79640;SDS011;69115;49.904;14.390;2023-04-15T05:13:38;12.23;;;8.30;;
79640;SDS011;69115;49.904;14.390;2023-04-15T05:16:04;12.30;;;8.55;;
79640;SDS011;69115;49.904;14.390;2023-04-15T05:18:30;17.33;;;8.48;;
79640;SDS011;69115;49.904;14.390;2023-04-15T05:20:56;13.55;;;9.05;;
79640;SDS011;69115;49.904;14.390;2023-04-15T05:23:21;13.68;;;8.45;;
79640;SDS011;69115;49.904;14.390;2023-04-15T05:25:47;10.27;;;7.53;;
79640;SDS011;69115;49.904;14.390;2023-04-15T05:28:12;11.55;;;8.05;;
79640;SDS011;69115;49.904;14.390;2023-04-15T05:30:37;13.52;;;7.88;;
79640;SDS011;69115;49.904;14.390;2023-04-15T05:33:03;13.52;;;8.27;;
79640;SDS011;69115;49.904;14.390;2023-04-15T05:35:29;10.30;;;7.07;;
79640;SDS011;69115;49.904;14.390;2023-04-15T05:37:55;10.95;;;7.68;;
79640;SDS011;69115;49.904;14.390;2023-04-15T05:40:20;10.75;;;6.57;;
79640;SDS011;69115;49.904;14.390;2023-04-15T05:42:46;11.30;;;7.95;;
79640;SDS011;69115;49.904;14.390;2023-04-15T05:45:11;10.88;;;7.72;;
79640;SDS011;69115;49.904;14.390;2023-04-15T05:47:37;10.40;;;7.20;;
79640;SDS011;69115;49.904;14.390;2023-04-15T05:50:03;11.90;;;8.43;;
79640;SDS011;69115;49.904;14.390;2023-04-15T05:52:28;12.00;;;8.05;;
79640;SDS011;69115;49.904;14.390;2023-04-15T05:54:54;11.02;;;7.47;;
79640;SDS011;69115;49.904;14.390;2023-04-15T05:57:20;11.90;;;8.13;;
79640;SDS011;69115;49.904;14.390;2023-04-15T05:59:45;13.10;;;7.82;;
79640;SDS011;69115;49.904;14.390;2023-04-15T06:02:11;11.20;;;7.77;;
79640;SDS011;69115;49.904;14.390;2023-04-15T06:04:37;11.30;;;7.97;;
79640;SDS011;69115;49.904;14.390;2023-04-15T06:07:03;10.85;;;7.53;;
79640;SDS011;69115;49.904;14.390;2023-04-15T06:09:28;12.27;;;8.27;;
79640;SDS011;69115;49.904;14.390;2023-04-15T06:11:54;11.45;;;7.75;;
79640;SDS011;69115;49.904;14.390;2023-04-15T06:14:21;13.75;;;9.13;;
79640;SDS011;69115;49.904;14.390;2023-04-15T06:16:46;11.20;;;7.43;;
79640;SDS011;69115;49.904;14.390;2023-04-15T06:19:11;16.38;;;9.60;;
79640;SDS011;69115;49.904;14.390;2023-04-15T06:21:38;13.07;;;8.35;;
79640;SDS011;69115;49.904;14.390;2023-04-15T06:24:03;22.33;;;12.10;;
79640;SDS011;69115;49.904;14.390;2023-04-15T06:26:29;12.75;;;7.95;;
79640;SDS011;69115;49.904;14.390;2023-04-15T06:28:55;12.45;;;8.10;;
79640;SDS011;69115;49.904;14.390;2023-04-15T06:31:21;14.98;;;8.75;;
79640;SDS011;69115;49.904;14.390;2023-04-15T06:33:46;11.25;;;7.45;;
79640;SDS011;69115;49.904;14.390;2023-04-15T06:36:12;11.52;;;8.38;;
79640;SDS011;69115;49.904;14.390;2023-04-15T06:38:37;9.20;;;6.95;;
79640;SDS011;69115;49.904;14.390;2023-04-15T06:41:03;10.07;;;6.70;;
79640;SDS011;69115;49.904;14.390;2023-04-15T06:43:28;9.25;;;6.10;;
79640;SDS011;69115;49.904;14.390;2023-04-15T06:45:54;10.20;;;7.30;;
79640;SDS011;69115;49.904;14.390;2023-04-15T06:48:20;9.57;;;7.68;;
79640;SDS011;69115;49.904;14.390;2023-04-15T06:50:46;8.63;;;6.20;;
79640;SDS011;69115;49.904;14.390;2023-04-15T06:53:13;13.52;;;8.52;;
79640;SDS011;69115;49.904;14.390;2023-04-15T06:55:38;10.02;;;7.55;;
79640;SDS011;69115;49.904;14.390;2023-04-15T06:58:04;9.73;;;6.63;;
79640;SDS011;69115;49.904;14.390;2023-04-15T07:00:29;9.35;;;7.00;;
79640;SDS011;69115;49.904;14.390;2023-04-15T07:02:55;9.05;;;6.28;;
79640;SDS011;69115;49.904;14.390;2023-04-15T07:05:21;10.20;;;6.25;;
79640;SDS011;69115;49.904;14.390;2023-04-15T07:07:46;7.65;;;5.13;;
79640;SDS011;69115;49.904;14.390;2023-04-15T07:10:11;7.40;;;5.63;;
79640;SDS011;69115;49.904;14.390;2023-04-15T07:12:38;7.20;;;5.60;;
79640;SDS011;69115;49.904;14.390;2023-04-15T07:15:04;7.80;;;5.38;;
79640;SDS011;69115;49.904;14.390;2023-04-15T07:17:30;8.00;;;5.25;;
79640;SDS011;69115;49.904;14.390;2023-04-15T07:19:56;5.53;;;4.00;;
79640;SDS011;69115;49.904;14.390;2023-04-15T07:22:21;7.82;;;5.60;;
79640;SDS011;69115;49.904;14.390;2023-04-15T07:24:47;5.18;;;3.72;;
79640;SDS011;69115;49.904;14.390;2023-04-15T07:27:12;6.43;;;4.50;;
79640;SDS011;69115;49.904;14.390;2023-04-15T07:29:37;4.32;;;3.13;;
79640;SDS011;69115;49.904;14.390;2023-04-15T07:32:03;6.70;;;3.90;;
79640;SDS011;69115;49.904;14.390;2023-04-15T07:34:28;5.38;;;3.80;;
79640;SDS011;69115;49.904;14.390;2023-04-15T07:36:54;8.45;;;4.80;;
79640;SDS011;69115;49.904;14.390;2023-04-15T07:39:19;5.68;;;3.95;;
79640;SDS011;69115;49.904;14.390;2023-04-15T07:41:45;6.07;;;4.03;;
79640;SDS011;69115;49.904;14.390;2023-04-15T07:44:10;11.93;;;5.47;;
79640;SDS011;69115;49.904;14.390;2023-04-15T07:46:36;6.90;;;4.03;;
79640;SDS011;69115;49.904;14.390;2023-04-15T07:49:02;5.00;;;3.53;;
79640;SDS011;69115;49.904;14.390;2023-04-15T07:51:28;7.00;;;4.72;;
79640;SDS011;69115;49.904;14.390;2023-04-15T07:53:53;5.75;;;3.75;;
79640;SDS011;69115;49.904;14.390;2023-04-15T07:56:19;6.30;;;3.78;;
79640;SDS011;69115;49.904;14.390;2023-04-15T07:58:44;3.80;;;2.83;;
79640;SDS011;69115;49.904;14.390;2023-04-15T08:01:10;3.97;;;2.45;;
79640;SDS011;69115;49.904;14.390;2023-04-15T08:03:35;5.25;;;3.03;;
79640;SDS011;69115;49.904;14.390;2023-04-15T08:06:01;5.05;;;3.30;;
79640;SDS011;69115;49.904;14.390;2023-04-15T08:08:27;4.75;;;2.55;;
79640;SDS011;69115;49.904;14.390;2023-04-15T08:10:52;3.47;;;2.25;;
79640;SDS011;69115;49.904;14.390;2023-04-15T08:13:17;5.30;;;2.22;;
79640;SDS011;69115;49.904;14.390;2023-04-15T08:15:43;3.60;;;2.40;;
79640;SDS011;69115;49.904;14.390;2023-04-15T08:18:09;3.95;;;2.10;;
79640;SDS011;69115;49.904;14.390;2023-04-15T08:20:34;3.35;;;2.00;;
79640;SDS011;69115;49.904;14.390;2023-04-15T08:23:00;2.58;;;1.63;;
79640;SDS011;69115;49.904;14.390;2023-04-15T08:25:25;3.28;;;2.10;;
79640;SDS011;69115;49.904;14.390;2023-04-15T08:27:54;6.75;;;3.83;;
79640;SDS011;69115;49.904;14.390;2023-04-15T08:30:19;5.68;;;3.83;;
79640;SDS011;69115;49.904;14.390;2023-04-15T08:32:45;6.60;;;4.00;;
79640;SDS011;69115;49.904;14.390;2023-04-15T08:35:11;5.07;;;3.00;;
79640;SDS011;69115;49.904;14.390;2023-04-15T08:37:37;4.75;;;2.92;;
79640;SDS011;69115;49.904;14.390;2023-04-15T08:40:02;8.50;;;4.07;;
79640;SDS011;69115;49.904;14.390;2023-04-15T08:42:34;7.80;;;3.58;;
79640;SDS011;69115;49.904;14.390;2023-04-15T08:45:03;8.15;;;3.25;;
79640;SDS011;69115;49.904;14.390;2023-04-15T08:47:29;16.25;;;4.68;;
79640;SDS011;69115;49.904;14.390;2023-04-15T08:49:58;8.75;;;3.45;;
79640;SDS011;69115;49.904;14.390;2023-04-15T08:52:25;10.93;;;4.55;;
79640;SDS011;69115;49.904;14.390;2023-04-15T08:54:51;5.55;;;3.20;;
79640;SDS011;69115;49.904;14.390;2023-04-15T08:57:19;8.15;;;3.70;;
79640;SDS011;69115;49.904;14.390;2023-04-15T08:59:44;9.02;;;4.38;;
79640;SDS011;69115;49.904;14.390;2023-04-15T09:02:10;5.72;;;3.50;;
79640;SDS011;69115;49.904;14.390;2023-04-15T09:04:36;5.95;;;2.67;;
79640;SDS011;69115;49.904;14.390;2023-04-15T09:07:01;5.53;;;2.83;;
79640;SDS011;69115;49.904;14.390;2023-04-15T09:09:26;4.47;;;2.88;;
79640;SDS011;69115;49.904;14.390;2023-04-15T09:11:52;4.75;;;3.10;;
79640;SDS011;69115;49.904;14.390;2023-04-15T09:14:17;6.57;;;3.55;;
79640;SDS011;69115;49.904;14.390;2023-04-15T09:19:43;5.60;;;3.38;;
79640;SDS011;69115;49.904;14.390;2023-04-15T09:22:08;6.20;;;3.50;;
79640;SDS011;69115;49.904;14.390;2023-04-15T09:24:38;4.53;;;3.13;;
79640;SDS011;69115;49.904;14.390;2023-04-15T09:27:05;4.70;;;3.40;;
79640;SDS011;69115;49.904;14.390;2023-04-15T09:29:30;4.32;;;2.92;;
79640;SDS011;69115;49.904;14.390;2023-04-15T09:31:56;3.40;;;2.50;;
79640;SDS011;69115;49.904;14.390;2023-04-15T09:34:45;4.22;;;2.90;;
79640;SDS011;69115;49.904;14.390;2023-04-15T09:37:10;4.45;;;3.33;;
79640;SDS011;69115;49.904;14.390;2023-04-15T09:39:50;3.83;;;2.97;;
79640;SDS011;69115;49.904;14.390;2023-04-15T09:42:16;3.78;;;2.90;;
79640;SDS011;69115;49.904;14.390;2023-04-15T09:44:48;4.10;;;3.20;;
79640;SDS011;69115;49.904;14.390;2023-04-15T09:47:27;4.47;;;2.83;;
79640;SDS011;69115;49.904;14.390;2023-04-15T09:49:56;3.97;;;2.88;;
79640;SDS011;69115;49.904;14.390;2023-04-15T09:52:25;4.40;;;3.30;;
79640;SDS011;69115;49.904;14.390;2023-04-15T09:54:52;3.80;;;3.05;;
79640;SDS011;69115;49.904;14.390;2023-04-15T09:57:19;4.57;;;3.00;;
79640;SDS011;69115;49.904;14.390;2023-04-15T09:59:45;3.90;;;3.05;;
79640;SDS011;69115;49.904;14.390;2023-04-15T10:02:11;4.13;;;3.00;;
79640;SDS011;69115;49.904;14.390;2023-04-15T10:04:39;3.40;;;2.60;;
79640;SDS011;69115;49.904;14.390;2023-04-15T10:07:05;3.45;;;2.72;;
79640;SDS011;69115;49.904;14.390;2023-04-15T10:09:34;4.93;;;3.13;;
79640;SDS011;69115;49.904;14.390;2023-04-15T10:12:01;7.68;;;5.13;;
79640;SDS011;69115;49.904;14.390;2023-04-15T10:14:28;6.25;;;4.35;;
79640;SDS011;69115;49.904;14.390;2023-04-15T10:16:57;4.30;;;3.28;;
79640;SDS011;69115;49.904;14.390;2023-04-15T10:19:25;4.38;;;3.00;;
79640;SDS011;69115;49.904;14.390;2023-04-15T10:21:51;5.80;;;4.00;;
79640;SDS011;69115;49.904;14.390;2023-04-15T10:24:17;4.25;;;3.25;;
79640;SDS011;69115;49.904;14.390;2023-04-15T10:26:43;4.32;;;3.00;;
79640;SDS011;69115;49.904;14.390;2023-04-15T10:29:09;5.53;;;3.38;;
79640;SDS011;69115;49.904;14.390;2023-04-15T10:31:35;5.13;;;2.90;;
79640;SDS011;69115;49.904;14.390;2023-04-15T10:34:02;10.25;;;5.45;;
79640;SDS011;69115;49.904;14.390;2023-04-15T10:36:30;6.05;;;4.63;;
79640;SDS011;69115;49.904;14.390;2023-04-15T10:38:56;4.97;;;3.67;;
79640;SDS011;69115;49.904;14.390;2023-04-15T10:41:25;5.10;;;3.30;;
79640;SDS011;69115;49.904;14.390;2023-04-15T10:46:42;5.03;;;3.42;;
79640;SDS011;69115;49.904;14.390;2023-04-15T10:49:10;4.00;;;3.25;;
79640;SDS011;69115;49.904;14.390;2023-04-15T10:51:43;9.27;;;4.45;;
79640;SDS011;69115;49.904;14.390;2023-04-15T10:54:16;4.03;;;3.13;;
79640;SDS011;69115;49.904;14.390;2023-04-15T10:59:28;4.53;;;2.72;;
79640;SDS011;69115;49.904;14.390;2023-04-15T11:01:54;3.90;;;3.05;;
79640;SDS011;69115;49.904;14.390;2023-04-15T11:07:57;3.72;;;2.40;;
79640;SDS011;69115;49.904;14.390;2023-04-15T11:13:36;3.00;;;2.13;;
79640;SDS011;69115;49.904;14.390;2023-04-15T11:15:40;4.20;;;2.58;;
79640;SDS011;69115;49.904;14.390;2023-04-15T11:20:48;4.28;;;2.50;;
79640;SDS011;69115;49.904;14.390;2023-04-15T11:23:29;3.38;;;2.22;;
79640;SDS011;69115;49.904;14.390;2023-04-15T11:25:56;3.42;;;2.47;;
79640;SDS011;69115;49.904;14.390;2023-04-15T11:28:24;3.38;;;2.40;;
79640;SDS011;69115;49.904;14.390;2023-04-15T11:30:51;3.60;;;2.65;;
79640;SDS011;69115;49.904;14.390;2023-04-15T11:33:18;3.40;;;2.42;;
79640;SDS011;69115;49.904;14.390;2023-04-15T11:35:43;3.50;;;2.20;;
79640;SDS011;69115;49.904;14.390;2023-04-15T11:38:10;3.63;;;2.30;;
79640;SDS011;69115;49.904;14.390;2023-04-15T11:40:37;3.30;;;2.20;;
79640;SDS011;69115;49.904;14.390;2023-04-15T11:43:06;4.88;;;2.30;;
79640;SDS011;69115;49.904;14.390;2023-04-15T11:45:33;3.67;;;2.78;;
79640;SDS011;69115;49.904;14.390;2023-04-15T11:48:04;5.28;;;3.92;;
79640;SDS011;69115;49.904;14.390;2023-04-15T11:50:33;3.70;;;2.67;;
79640;SDS011;69115;49.904;14.390;2023-04-15T11:53:00;3.90;;;2.55;;
79640;SDS011;69115;49.904;14.390;2023-04-15T11:55:27;4.13;;;2.55;;
79640;SDS011;69115;49.904;14.390;2023-04-15T11:58:09;4.90;;;3.35;;
79640;SDS011;69115;49.904;14.390;2023-04-15T12:00:36;4.78;;;2.97;;
79640;SDS011;69115;49.904;14.390;2023-04-15T12:03:11;41.42;;;25.40;;
79640;SDS011;69115;49.904;14.390;2023-04-15T12:11:47;6.07;;;3.58;;
79640;SDS011;69115;49.904;14.390;2023-04-15T12:19:13;5.43;;;3.38;;
79640;SDS011;69115;49.904;14.390;2023-04-15T12:21:40;5.95;;;3.08;;
79640;SDS011;69115;49.904;14.390;2023-04-15T12:24:09;10.38;;;6.10;;
79640;SDS011;69115;49.904;14.390;2023-04-15T12:26:36;5.53;;;3.92;;
79640;SDS011;69115;49.904;14.390;2023-04-15T12:29:07;4.70;;;3.10;;
79640;SDS011;69115;49.904;14.390;2023-04-15T12:31:33;5.88;;;3.40;;
79640;SDS011;69115;49.904;14.390;2023-04-15T12:34:00;3.47;;;2.42;;
79640;SDS011;69115;49.904;14.390;2023-04-15T12:36:26;3.58;;;2.30;;
79640;SDS011;69115;49.904;14.390;2023-04-15T12:38:52;4.60;;;3.05;;
79640;SDS011;69115;49.904;14.390;2023-04-15T12:41:18;4.50;;;2.90;;
79640;SDS011;69115;49.904;14.390;2023-04-15T12:43:44;6.38;;;3.10;;
79640;SDS011;69115;49.904;14.390;2023-04-15T12:46:11;4.53;;;2.92;;
79640;SDS011;69115;49.904;14.390;2023-04-15T12:48:37;4.53;;;2.92;;
79640;SDS011;69115;49.904;14.390;2023-04-15T12:51:02;8.05;;;4.60;;
79640;SDS011;69115;49.904;14.390;2023-04-15T12:53:28;5.65;;;3.83;;
79640;SDS011;69115;49.904;14.390;2023-04-15T12:55:53;5.22;;;3.78;;
79640;SDS011;69115;49.904;14.390;2023-04-15T12:58:19;7.10;;;4.80;;
79640;SDS011;69115;49.904;14.390;2023-04-15T13:00:45;7.03;;;3.85;;
79640;SDS011;69115;49.904;14.390;2023-04-15T13:03:11;5.97;;;4.10;;
79640;SDS011;69115;49.904;14.390;2023-04-15T13:05:37;6.07;;;4.25;;
79640;SDS011;69115;49.904;14.390;2023-04-15T13:08:04;18.02;;;8.88;;
79640;SDS011;69115;49.904;14.390;2023-04-15T13:10:30;15.73;;;8.13;;
79640;SDS011;69115;49.904;14.390;2023-04-15T13:12:55;6.32;;;3.67;;
79640;SDS011;69115;49.904;14.390;2023-04-15T13:15:21;5.57;;;3.55;;
79640;SDS011;69115;49.904;14.390;2023-04-15T13:17:47;4.90;;;3.58;;
79640;SDS011;69115;49.904;14.390;2023-04-15T13:20:13;4.65;;;3.03;;
79640;SDS011;69115;49.904;14.390;2023-04-15T13:22:39;4.78;;;3.10;;
79640;SDS011;69115;49.904;14.390;2023-04-15T13:25:05;6.55;;;3.97;;
79640;SDS011;69115;49.904;14.390;2023-04-15T13:27:32;6.20;;;3.47;;
79640;SDS011;69115;49.904;14.390;2023-04-15T13:29:58;5.88;;;4.20;;
79640;SDS011;69115;49.904;14.390;2023-04-15T13:32:24;8.60;;;3.90;;
79640;SDS011;69115;49.904;14.390;2023-04-15T13:34:49;8.73;;;5.32;;
79640;SDS011;69115;49.904;14.390;2023-04-15T13:37:15;5.80;;;3.63;;
79640;SDS011;69115;49.904;14.390;2023-04-15T13:39:41;6.38;;;4.25;;
79640;SDS011;69115;49.904;14.390;2023-04-15T13:42:06;6.50;;;4.28;;
79640;SDS011;69115;49.904;14.390;2023-04-15T13:44:31;5.32;;;3.60;;
79640;SDS011;69115;49.904;14.390;2023-04-15T13:46:57;6.00;;;3.63;;
79640;SDS011;69115;49.904;14.390;2023-04-15T13:49:22;10.73;;;3.78;;
79640;SDS011;69115;49.904;14.390;2023-04-15T13:51:48;6.35;;;3.83;;
79640;SDS011;69115;49.904;14.390;2023-04-15T13:54:15;6.82;;;4.07;;
79640;SDS011;69115;49.904;14.390;2023-04-15T13:56:40;6.18;;;3.00;;
79640;SDS011;69115;49.904;14.390;2023-04-15T13:59:05;6.72;;;3.70;;
79640;SDS011;69115;49.904;14.390;2023-04-15T14:01:33;6.88;;;3.10;;
79640;SDS011;69115;49.904;14.390;2023-04-15T14:03:58;6.32;;;3.58;;
79640;SDS011;69115;49.904;14.390;2023-04-15T14:06:24;11.80;;;4.20;;
79640;SDS011;69115;49.904;14.390;2023-04-15T14:08:50;10.50;;;5.35;;
79640;SDS011;69115;49.904;14.390;2023-04-15T14:11:15;13.07;;;4.43;;
79640;SDS011;69115;49.904;14.390;2023-04-15T14:13:40;8.55;;;3.72;;
79640;SDS011;69115;49.904;14.390;2023-04-15T14:16:06;5.68;;;2.63;;
79640;SDS011;69115;49.904;14.390;2023-04-15T14:18:31;4.05;;;2.75;;
79640;SDS011;69115;49.904;14.390;2023-04-15T14:20:57;8.27;;;2.92;;
79640;SDS011;69115;49.904;14.390;2023-04-15T14:23:22;6.85;;;3.10;;
79640;SDS011;69115;49.904;14.390;2023-04-15T14:25:48;21.95;;;4.60;;
79640;SDS011;69115;49.904;14.390;2023-04-15T14:28:14;15.07;;;3.45;;
79640;SDS011;69115;49.904;14.390;2023-04-15T14:30:40;4.55;;;2.83;;
79640;SDS011;69115;49.904;14.390;2023-04-15T14:33:05;8.15;;;3.13;;
79640;SDS011;69115;49.904;14.390;2023-04-15T14:35:31;4.88;;;2.90;;
79640;SDS011;69115;49.904;14.390;2023-04-15T14:37:56;17.10;;;4.10;;
79640;SDS011;69115;49.904;14.390;2023-04-15T14:40:21;5.75;;;3.35;;
79640;SDS011;69115;49.904;14.390;2023-04-15T14:42:47;5.75;;;3.28;;
79640;SDS011;69115;49.904;14.390;2023-04-15T14:45:12;6.82;;;3.88;;
79640;SDS011;69115;49.904;14.390;2023-04-15T14:47:38;8.98;;;3.95;;
79640;SDS011;69115;49.904;14.390;2023-04-15T14:50:03;5.00;;;3.22;;
79640;SDS011;69115;49.904;14.390;2023-04-15T14:52:30;8.52;;;4.20;;